Time;durP1;ratioP1;P1;durP2;ratioP2;P2;SDS_P1;SDS_P2;PMS_P1;PMS_P2;Temp;Humidity;BMP_temperature;BMP_pressure;BME280_temperature;BME280_humidity;BME280_pressure;Samples;Min_cycle;Max_cycle;Signal;HPM_P1;HPM_P2
2021/04/30 00:00:07;;;;;;;4.82;4.28;;;12.40;63.80;;;;;;5064907;28;20420;-63
2021/04/30 00:02:37;;;;;;;5.30;4.40;;;12.40;63.70;;;;;;5065425;28;20688;-63
2021/04/30 00:05:08;;;;;;;4.75;4.35;;;12.40;63.50;;;;;;5062125;28;20033;-64
2021/04/30 00:07:36;;;;;;;6.07;4.95;;;12.40;63.40;;;;;;5066111;28;20489;-63
2021/04/30 00:10:08;;;;;;;5.85;4.68;;;12.40;63.30;;;;;;5066511;28;20032;-64
2021/04/30 00:12:36;;;;;;;5.43;4.22;;;12.40;63.50;;;;;;5058335;28;20074;-63
2021/04/30 00:15:03;;;;;;;4.85;4.45;;;12.40;62.90;;;;;;5064846;28;20504;-63
2021/04/30 00:17:33;;;;;;;6.20;4.82;;;12.40;62.90;;;;;;5066955;28;20549;-63
2021/04/30 00:20:02;;;;;;;5.15;4.57;;;12.40;62.70;;;;;;5061309;28;20041;-63
2021/04/30 00:22:32;;;;;;;5.15;4.65;;;12.40;62.60;;;;;;5064739;28;20025;-62
2021/04/30 00:25:05;;;;;;;5.70;4.63;;;12.30;62.20;;;;;;5068132;28;20028;-63
2021/04/30 00:27:32;;;;;;;5.07;4.43;;;12.30;62.20;;;;;;5063049;28;20032;-63
2021/04/30 00:29:58;;;;;;;4.95;4.45;;;12.30;62.00;;;;;;5063130;28;20052;-64
2021/04/30 00:32:26;;;;;;;6.32;5.00;;;12.30;61.90;;;;;;5062548;28;20110;-64
2021/04/30 00:34:57;;;;;;;4.72;4.32;;;12.30;61.90;;;;;;5063051;28;20488;-64
2021/04/30 00:37:27;;;;;;;7.82;4.97;;;12.20;61.80;;;;;;5078819;28;20036;-64
2021/04/30 00:39:55;;;;;;;5.22;4.55;;;12.20;61.80;;;;;;5061795;28;21986;-64
2021/04/30 00:42:23;;;;;;;5.55;4.90;;;12.20;62.10;;;;;;5065641;28;20115;-63
2021/04/30 00:44:51;;;;;;;5.05;4.53;;;12.20;62.40;;;;;;5061937;28;20025;-65
2021/04/30 00:47:37;;;;;;;6.82;4.97;;;12.20;62.40;;;;;;5066411;28;20063;-64
2021/04/30 00:50:14;;;;;;;7.45;5.50;;;12.20;60.90;;;;;;5064405;28;20032;-63
2021/04/30 00:52:42;;;;;;;5.72;4.97;;;12.10;61.50;;;;;;5062268;28;20033;-63
2021/04/30 00:55:14;;;;;;;9.45;5.20;;;12.10;61.70;;;;;;5064505;28;20032;-63
2021/04/30 00:57:53;;;;;;;6.43;5.25;;;12.20;61.90;;;;;;5062516;28;20433;-65
2021/04/30 01:00:21;;;;;;;5.25;4.68;;;12.20;62.00;;;;;;5060597;28;20040;-63
2021/04/30 01:02:49;;;;;;;6.45;5.18;;;12.20;61.70;;;;;;5051122;28;20032;-63
2021/04/30 01:05:18;;;;;;;5.05;4.60;;;12.20;61.60;;;;;;5059197;28;20037;-63
2021/04/30 01:07:47;;;;;;;7.93;4.63;;;12.20;61.40;;;;;;5062492;28;20447;-63
2021/04/30 01:10:15;;;;;;;6.68;5.15;;;12.10;61.30;;;;;;5060671;28;20040;-62
2021/04/30 01:12:45;;;;;;;8.65;5.32;;;12.10;62.20;;;;;;5055143;28;22360;-63
2021/04/30 01:15:18;;;;;;;5.93;5.28;;;12.10;61.20;;;;;;5064971;28;20060;-63
2021/04/30 01:17:49;;;;;;;6.50;5.10;;;12.10;61.20;;;;;;5063776;28;20041;-64
2021/04/30 01:20:20;;;;;;;7.75;5.10;;;12.00;61.20;;;;;;5078063;28;20517;-63
2021/04/30 01:22:55;;;;;;;6.95;5.28;;;12.00;61.30;;;;;;5058412;28;20037;-63
2021/04/30 01:25:31;;;;;;;6.63;5.32;;;12.00;61.70;;;;;;5066876;28;20050;-63
2021/04/30 01:28:04;;;;;;;6.82;5.00;;;12.00;61.60;;;;;;5065145;28;20056;-63
2021/04/30 01:30:37;;;;;;;6.05;5.18;;;11.90;61.70;;;;;;5064076;28;20040;-63
2021/04/30 01:33:25;;;;;;;6.53;5.90;;;11.90;62.00;;;;;;5063114;28;20093;-64
2021/04/30 01:35:55;;;;;;;7.38;5.25;;;11.90;61.40;;;;;;5055438;28;20037;-63
2021/04/30 01:38:26;;;;;;;6.60;5.30;;;11.90;61.60;;;;;;5063001;28;20582;-63
2021/04/30 01:40:56;;;;;;;6.20;5.15;;;11.90;62.20;;;;;;5064460;28;20036;-63
2021/04/30 01:43:25;;;;;;;7.22;5.95;;;11.90;62.00;;;;;;5059706;28;20028;-63
2021/04/30 01:45:56;;;;;;;8.23;6.03;;;11.90;61.60;;;;;;5059574;28;20032;-61
2021/04/30 01:48:32;;;;;;;8.82;6.15;;;11.80;62.60;;;;;;5056806;28;20043;-63
2021/04/30 01:51:00;;;;;;;7.75;5.68;;;11.80;61.90;;;;;;5059711;28;20463;-64
2021/04/30 01:53:28;;;;;;;8.02;6.45;;;11.80;62.30;;;;;;5061432;28;20025;-63
2021/04/30 01:55:56;;;;;;;9.95;6.85;;;11.80;61.20;;;;;;5066597;28;20064;-63
2021/04/30 01:58:28;;;;;;;9.25;6.38;;;11.80;61.10;;;;;;5059585;28;20477;-64
2021/04/30 02:00:55;;;;;;;8.45;6.63;;;11.80;61.10;;;;;;5060524;28;20032;-63
2021/04/30 02:03:21;;;;;;;8.73;6.05;;;11.80;61.20;;;;;;5054672;28;20068;-63
2021/04/30 02:05:47;;;;;;;10.05;6.68;;;11.80;61.30;;;;;;5064364;28;20574;-64
2021/04/30 02:08:16;;;;;;;9.35;6.90;;;11.80;61.50;;;;;;5064631;28;20432;-64
2021/04/30 02:10:45;;;;;;;10.13;6.78;;;11.80;61.30;;;;;;5058754;28;20048;-63
2021/04/30 02:13:15;;;;;;;11.00;7.03;;;11.80;61.40;;;;;;5062098;28;20586;-63
2021/04/30 02:15:47;;;;;;;7.43;6.18;;;11.80;61.20;;;;;;5060253;28;20497;-63
2021/04/30 02:18:16;;;;;;;8.65;6.97;;;11.80;60.90;;;;;;5058172;28;20036;-63
2021/04/30 02:20:45;;;;;;;9.73;7.18;;;11.80;60.80;;;;;;5061550;28;20063;-63
2021/04/30 02:23:13;;;;;;;9.80;6.53;;;11.80;60.60;;;;;;5061516;28;20115;-63
2021/04/30 02:25:39;;;;;;;8.30;7.03;;;11.80;60.70;;;;;;5063991;28;20057;-64
2021/04/30 02:28:10;;;;;;;10.05;7.45;;;11.80;60.70;;;;;;5063653;28;20434;-61
2021/04/30 02:30:39;;;;;;;8.23;6.78;;;11.80;60.60;;;;;;5065745;28;20161;-63
2021/04/30 02:33:10;;;;;;;7.70;6.40;;;11.80;60.80;;;;;;5061050;28;20486;-63
2021/04/30 02:35:43;;;;;;;8.48;6.45;;;11.80;60.60;;;;;;5063824;28;20029;-63
2021/04/30 02:38:11;;;;;;;8.45;6.95;;;11.80;60.70;;;;;;5059728;28;20572;-63
2021/04/30 02:40:43;;;;;;;9.75;6.38;;;11.80;60.70;;;;;;5058125;28;20525;-63
2021/04/30 02:43:14;;;;;;;9.32;6.43;;;11.80;60.60;;;;;;5060872;28;20040;-64
2021/04/30 02:45:44;;;;;;;7.25;6.47;;;11.80;60.50;;;;;;5076640;28;20135;-63
2021/04/30 02:48:22;;;;;;;7.68;6.63;;;11.80;60.30;;;;;;5052569;28;20680;-63
2021/04/30 02:50:55;;;;;;;7.65;6.88;;;11.80;60.50;;;;;;5064385;28;20115;-64
2021/04/30 02:53:28;;;;;;;9.27;6.85;;;11.80;60.50;;;;;;5062650;28;20025;-63
2021/04/30 02:55:54;;;;;;;11.95;9.10;;;11.70;60.40;;;;;;5061812;28;20028;-63
2021/04/30 02:58:26;;;;;;;9.25;7.50;;;11.80;60.50;;;;;;5057758;28;20033;-63
2021/04/30 03:00:52;;;;;;;8.27;6.95;;;11.80;60.30;;;;;;5064296;28;20040;-63
2021/04/30 03:03:20;;;;;;;8.68;6.82;;;11.80;60.30;;;;;;5053949;28;20041;-63
2021/04/30 03:05:48;;;;;;;7.53;6.75;;;11.80;60.20;;;;;;5059703;28;20039;-63
2021/04/30 03:08:18;;;;;;;10.88;8.82;;;11.70;60.10;;;;;;5059666;28;20505;-63
2021/04/30 03:10:44;;;;;;;8.63;7.72;;;11.70;60.10;;;;;;5053828;28;20112;-63
2021/04/30 03:13:12;;;;;;;8.35;7.43;;;11.70;60.10;;;;;;5060328;28;20120;-63
2021/04/30 03:15:40;;;;;;;8.68;7.18;;;11.70;60.00;;;;;;5051811;28;20044;-63
2021/04/30 03:18:12;;;;;;;8.05;6.95;;;11.60;60.00;;;;;;5058370;28;20024;-63
2021/04/30 03:20:43;;;;;;;9.63;7.38;;;11.60;60.10;;;;;;5059309;28;20048;-63
2021/04/30 03:23:13;;;;;;;9.65;7.53;;;11.50;60.10;;;;;;5064534;28;20032;-62
2021/04/30 03:25:46;;;;;;;7.90;6.95;;;11.50;60.00;;;;;;5059698;28;20024;-63
2021/04/30 03:28:14;;;;;;;8.95;7.55;;;11.50;60.10;;;;;;5067613;28;20052;-64
2021/04/30 03:30:44;;;;;;;10.50;7.32;;;11.50;61.20;;;;;;5063873;28;20033;-63
2021/04/30 03:33:12;;;;;;;12.73;7.30;;;11.40;60.30;;;;;;5060231;28;20053;-63
2021/04/30 03:35:42;;;;;;;8.43;7.18;;;11.40;60.50;;;;;;5057348;28;20047;-62
2021/04/30 03:38:10;;;;;;;11.43;7.90;;;11.40;60.60;;;;;;5057356;28;20505;-63
2021/04/30 03:40:40;;;;;;;9.27;8.00;;;11.40;60.60;;;;;;5062887;28;20036;-63
2021/04/30 03:43:08;;;;;;;8.40;7.53;;;11.40;60.50;;;;;;5066479;28;20032;-64
2021/04/30 03:45:33;;;;;;;8.80;6.95;;;11.40;61.40;;;;;;5073700;28;20524;-63
2021/04/30 03:48:02;;;;;;;10.07;7.35;;;11.30;60.60;;;;;;5056673;28;20036;-64
2021/04/30 03:50:32;;;;;;;9.52;7.40;;;11.30;60.60;;;;;;5065671;28;20036;-64
2021/04/30 03:53:06;;;;;;;10.05;8.35;;;11.30;61.10;;;;;;5065550;28;20045;-64
2021/04/30 03:55:36;;;;;;;9.70;7.88;;;11.30;61.50;;;;;;5063964;28;20580;-64
2021/04/30 03:58:04;;;;;;;10.30;7.68;;;11.30;61.70;;;;;;5058760;28;20028;-63
2021/04/30 04:00:37;;;;;;;13.80;8.65;;;11.20;61.90;;;;;;5055142;28;20493;-64
2021/04/30 04:03:09;;;;;;;11.75;8.13;;;11.20;62.20;;;;;;5059337;28;20025;-63
2021/04/30 04:05:38;;;;;;;11.27;7.63;;;11.10;62.10;;;;;;5056770;28;20526;-63
2021/04/30 04:08:08;;;;;;;9.68;7.78;;;11.10;62.30;;;;;;5056391;28;20092;-64
2021/04/30 04:10:37;;;;;;;12.85;7.68;;;11.10;62.40;;;;;;5052233;28;20029;-62
2021/04/30 04:13:17;;;;;;;10.48;8.20;;;11.00;62.50;;;;;;5061610;28;20036;-63
2021/04/30 04:15:45;;;;;;;10.68;8.13;;;11.10;63.00;;;;;;5060449;28;20059;-65
2021/04/30 04:18:12;;;;;;;9.52;8.27;;;11.00;62.70;;;;;;5066556;28;20513;-62
2021/04/30 04:20:41;;;;;;;11.10;8.32;;;11.10;62.70;;;;;;5063841;28;20041;-63
2021/04/30 04:23:12;;;;;;;10.38;8.70;;;11.10;62.70;;;;;;5063132;28;20025;-63
2021/04/30 04:25:43;;;;;;;12.90;8.35;;;11.10;62.50;;;;;;5063297;28;20489;-63
2021/04/30 04:28:13;;;;;;;11.15;8.70;;;11.10;62.60;;;;;;5081320;28;20037;-63
2021/04/30 04:30:42;;;;;;;11.05;8.77;;;11.00;62.60;;;;;;5063173;28;20571;-64
2021/04/30 04:33:07;;;;;;;9.38;7.60;;;11.00;63.50;;;;;;5052733;28;20037;-63
2021/04/30 04:35:38;;;;;;;12.10;9.35;;;11.00;62.70;;;;;;5063684;28;20025;-63
2021/04/30 04:38:06;;;;;;;11.32;8.60;;;11.00;62.70;;;;;;5066388;28;20063;-61
2021/04/30 04:40:33;;;;;;;10.75;8.80;;;11.00;62.80;;;;;;5066163;28;20154;-61
2021/04/30 04:43:01;;;;;;;10.35;8.38;;;11.00;62.90;;;;;;5066417;28;20511;-63
2021/04/30 04:45:34;;;;;;;11.27;8.63;;;11.00;62.80;;;;;;5065887;28;20028;-64
2021/04/30 04:48:02;;;;;;;10.18;8.02;;;11.00;62.90;;;;;;5066563;28;20040;-64
2021/04/30 04:50:33;;;;;;;10.27;7.88;;;11.00;62.90;;;;;;5063900;28;20032;-63
2021/04/30 04:52:58;;;;;;;10.45;8.73;;;11.00;62.90;;;;;;5067961;28;20119;-64
2021/04/30 04:55:28;;;;;;;10.98;8.73;;;11.00;63.10;;;;;;5065255;28;20453;-64
2021/04/30 04:57:56;;;;;;;12.00;8.90;;;11.00;63.10;;;;;;5065725;28;20060;-61
2021/04/30 05:00:27;;;;;;;11.85;8.63;;;11.00;63.20;;;;;;5066667;28;20059;-64
2021/04/30 05:02:52;;;;;;;12.30;9.07;;;11.00;63.30;;;;;;5063957;28;20037;-63
2021/04/30 05:05:18;;;;;;;14.25;9.07;;;11.00;63.20;;;;;;5067704;28;20024;-63
2021/04/30 05:07:46;;;;;;;12.27;9.13;;;11.00;63.10;;;;;;5064652;28;20024;-64
2021/04/30 05:10:18;;;;;;;11.07;9.07;;;11.00;63.10;;;;;;5066534;28;20044;-62
2021/04/30 05:12:44;;;;;;;10.68;8.73;;;11.00;63.10;;;;;;5061817;28;20516;-63
2021/04/30 05:15:18;;;;;;;15.00;9.63;;;11.00;63.00;;;;;;5064388;28;20078;-62
2021/04/30 05:17:49;;;;;;;12.82;9.40;;;11.00;63.20;;;;;;5067635;28;20033;-62
2021/04/30 05:20:21;;;;;;;12.30;9.32;;;11.00;64.10;;;;;;5065791;28;20032;-63
2021/04/30 05:22:49;;;;;;;13.38;9.63;;;11.10;63.30;;;;;;5066058;28;20115;-63
2021/04/30 05:25:15;;;;;;;12.90;10.15;;;11.10;62.90;;;;;;5065143;28;20042;-64
2021/04/30 05:27:45;;;;;;;13.07;9.85;;;11.10;63.50;;;;;;5065683;28;20116;-63
2021/04/30 05:30:16;;;;;;;12.63;8.95;;;11.10;62.60;;;;;;5066390;28;20036;-63
2021/04/30 05:32:44;;;;;;;12.75;9.43;;;11.10;62.60;;;;;;5065764;28;20048;-63
2021/04/30 05:35:12;;;;;;;10.63;9.10;;;11.10;62.40;;;;;;5065708;28;20041;-63
2021/04/30 05:37:40;;;;;;;11.98;9.68;;;11.00;62.20;;;;;;5066208;28;20029;-63
2021/04/30 05:40:08;;;;;;;12.32;9.70;;;11.00;62.10;;;;;;5064444;28;20044;-63
2021/04/30 05:42:39;;;;;;;12.30;9.48;;;11.00;62.10;;;;;;5065365;28;20028;-61
2021/04/30 05:45:10;;;;;;;12.80;9.15;;;11.10;62.10;;;;;;5064225;28;20036;-63
2021/04/30 05:47:38;;;;;;;11.15;9.48;;;11.10;62.10;;;;;;5065081;28;20115;-63
2021/04/30 05:50:09;;;;;;;12.15;9.60;;;11.10;62.20;;;;;;5066935;28;20505;-63
2021/04/30 05:52:37;;;;;;;11.15;9.27;;;11.10;62.20;;;;;;5064856;28;20040;-63
2021/04/30 05:55:10;;;;;;;13.18;9.98;;;11.10;62.20;;;;;;5064303;28;20505;-63
2021/04/30 05:57:39;;;;;;;12.63;9.52;;;11.10;63.10;;;;;;5066154;28;20028;-64
2021/04/30 06:00:15;;;;;;;13.35;9.90;;;11.10;62.00;;;;;;5064504;28;20513;-63
2021/04/30 06:02:46;;;;;;;12.75;10.13;;;11.10;62.00;;;;;;5064774;28;20044;-63
2021/04/30 06:05:14;;;;;;;12.75;9.60;;;11.10;61.90;;;;;;5063585;28;20025;-61
2021/04/30 06:07:42;;;;;;;13.18;9.98;;;11.20;61.90;;;;;;5064010;28;20033;-63
2021/04/30 06:10:12;;;;;;;11.50;9.70;;;11.20;62.00;;;;;;5062974;28;20123;-63
2021/04/30 06:12:41;;;;;;;12.38;9.88;;;11.20;62.20;;;;;;5058728;28;20459;-61
2021/04/30 06:15:10;;;;;;;12.40;9.70;;;11.30;62.20;;;;;;5061077;28;20067;-63
2021/04/30 06:17:38;;;;;;;12.00;9.55;;;11.30;62.00;;;;;;5064427;28;20060;-63
2021/04/30 06:20:07;;;;;;;11.32;9.80;;;11.30;62.00;;;;;;5064047;28;20532;-64
2021/04/30 06:22:38;;;;;;;10.60;8.93;;;11.40;62.00;;;;;;5064695;28;20120;-63
2021/04/30 06:25:09;;;;;;;11.25;9.43;;;11.40;61.90;;;;;;5082453;28;20052;-63
2021/04/30 06:27:39;;;;;;;12.15;9.68;;;11.40;61.70;;;;;;5064816;28;20029;-64
2021/04/30 06:30:13;;;;;;;11.95;9.85;;;11.50;61.60;;;;;;5065830;28;20036;-63
2021/04/30 06:32:39;;;;;;;13.02;10.32;;;11.50;61.50;;;;;;5063619;28;20112;-63
2021/04/30 06:35:13;;;;;;;15.13;10.43;;;11.50;61.50;;;;;;5063626;28;20028;-63
2021/04/30 06:37:39;;;;;;;12.35;9.82;;;11.50;61.50;;;;;;5066119;28;20037;-63
2021/04/30 06:40:09;;;;;;;11.15;9.52;;;11.50;61.40;;;;;;5065066;28;20039;-63
2021/04/30 06:42:39;;;;;;;13.07;10.48;;;11.50;61.50;;;;;;5065017;28;20111;-63
2021/04/30 06:45:11;;;;;;;13.30;10.35;;;11.60;61.50;;;;;;5064684;28;20033;-63
2021/04/30 06:47:44;;;;;;;12.85;10.18;;;11.60;61.50;;;;;;5065555;28;20025;-64
2021/04/30 06:50:17;;;;;;;12.52;9.93;;;11.60;61.60;;;;;;5061988;28;20080;-63
2021/04/30 06:52:42;;;;;;;10.95;9.70;;;11.70;61.90;;;;;;5057739;28;20119;-63
2021/04/30 06:55:11;;;;;;;13.30;10.10;;;11.70;61.90;;;;;;5061495;28;20120;-63
2021/04/30 06:57:41;;;;;;;12.90;9.90;;;11.80;62.20;;;;;;5068055;28;20501;-63
2021/04/30 07:00:10;;;;;;;13.32;10.40;;;11.90;62.30;;;;;;5069503;28;20071;-62
2021/04/30 07:02:38;;;;;;;17.20;10.38;;;12.00;62.20;;;;;;5057982;28;20025;-64
2021/04/30 07:05:06;;;;;;;13.45;10.65;;;12.10;62.20;;;;;;5068200;28;20075;-63
2021/04/30 07:07:33;;;;;;;13.00;10.25;;;12.10;61.90;;;;;;5066622;28;20112;-63
2021/04/30 07:10:04;;;;;;;14.18;10.52;;;12.20;61.60;;;;;;5065343;28;20120;-63
2021/04/30 07:12:37;;;;;;;14.32;10.77;;;12.30;61.50;;;;;;5058638;28;20032;-63
2021/04/30 07:15:07;;;;;;;16.70;11.20;;;12.40;61.50;;;;;;5068281;28;20024;-61
2021/04/30 07:17:40;;;;;;;12.48;10.25;;;12.50;62.30;;;;;;5068635;28;20029;-63
2021/04/30 07:20:09;;;;;;;14.88;10.38;;;12.50;61.20;;;;;;5068381;28;20025;-62
2021/04/30 07:22:39;;;;;;;12.13;9.75;;;12.60;60.80;;;;;;5066172;28;20032;-63
2021/04/30 07:25:10;;;;;;;14.70;10.73;;;12.70;61.00;;;;;;5068359;28;20056;-61
2021/04/30 07:27:38;;;;;;;12.70;10.38;;;12.80;60.80;;;;;;5068821;28;20083;-62
2021/04/30 07:30:12;;;;;;;11.48;9.98;;;12.90;60.50;;;;;;5068213;28;20053;-63
2021/04/30 07:32:42;;;;;;;11.55;9.70;;;12.90;60.10;;;;;;5059517;28;20064;-64
2021/04/30 07:35:12;;;;;;;11.63;9.65;;;13.00;60.10;;;;;;5066358;28;20039;-64
2021/04/30 07:37:40;;;;;;;12.55;9.65;;;13.10;59.70;;;;;;5068767;28;20612;-63
2021/04/30 07:40:10;;;;;;;12.52;9.73;;;13.10;59.30;;;;;;5068128;28;20065;-63
2021/04/30 07:42:38;;;;;;;10.55;9.35;;;13.10;59.10;;;;;;5067100;28;20111;-64
2021/04/30 07:45:07;;;;;;;12.20;10.00;;;13.10;58.90;;;;;;5058702;28;20450;-61
2021/04/30 07:47:38;;;;;;;12.55;10.00;;;13.20;58.80;;;;;;5068266;28;20094;-63
2021/04/30 07:50:07;;;;;;;13.38;9.52;;;13.20;58.80;;;;;;5066157;28;20025;-64
2021/04/30 07:52:40;;;;;;;12.23;9.90;;;13.20;58.70;;;;;;5066437;28;20112;-60
2021/04/30 07:55:08;;;;;;;10.90;8.98;;;13.30;58.50;;;;;;5065917;28;20029;-64
2021/04/30 07:57:37;;;;;;;11.00;9.05;;;13.30;58.50;;;;;;5067562;28;20744;-63
2021/04/30 08:00:05;;;;;;;13.93;8.65;;;13.30;58.10;;;;;;5067233;28;20456;-64
2021/04/30 08:02:33;;;;;;;13.38;8.35;;;13.40;58.10;;;;;;5066052;28;20085;-63
2021/04/30 08:05:03;;;;;;;11.35;8.93;;;13.40;58.10;;;;;;5065078;28;20059;-63
2021/04/30 08:07:29;;;;;;;10.85;9.18;;;13.50;58.00;;;;;;5067540;28;20774;-63
2021/04/30 08:09:57;;;;;;;12.25;9.32;;;13.60;57.90;;;;;;5068480;28;20064;-63
2021/04/30 08:12:23;;;;;;;10.40;8.95;;;13.60;58.30;;;;;;5062649;28;20576;-64
2021/04/30 08:14:51;;;;;;;10.57;8.48;;;13.70;57.50;;;;;;5066635;28;20039;-64
2021/04/30 08:17:19;;;;;;;10.52;8.43;;;13.80;57.30;;;;;;5063249;28;20032;-63
2021/04/30 08:19:45;;;;;;;11.27;8.15;;;13.90;57.20;;;;;;5062339;28;20048;-61
2021/04/30 08:22:10;;;;;;;9.05;8.00;;;14.00;57.00;;;;;;5066807;28;20083;-63
2021/04/30 08:24:36;;;;;;;11.70;8.82;;;14.00;56.70;;;;;;5067946;28;20101;-64
2021/04/30 08:27:07;;;;;;;9.60;8.60;;;14.10;56.40;;;;;;5067048;28;20029;-64
2021/04/30 08:29:35;;;;;;;12.18;7.97;;;14.20;56.20;;;;;;5067709;28;20413;-64
2021/04/30 08:32:01;;;;;;;11.15;8.95;;;14.20;56.10;;;;;;5067198;28;20045;-64
2021/04/30 08:34:26;;;;;;;11.35;8.95;;;14.30;56.00;;;;;;5061971;28;20032;-63
2021/04/30 08:36:59;;;;;;;13.07;10.50;;;14.40;56.10;;;;;;5066697;28;20086;-63
2021/04/30 08:39:26;;;;;;;12.32;10.30;;;14.50;55.70;;;;;;5064478;28;20029;-64
2021/04/30 08:41:56;;;;;;;10.30;8.70;;;14.50;55.30;;;;;;5066134;28;20417;-63
2021/04/30 08:44:27;;;;;;;10.60;8.85;;;14.50;55.50;;;;;;5065805;28;20541;-64
2021/04/30 08:46:57;;;;;;;11.82;9.32;;;14.50;55.30;;;;;;5065510;28;20456;-62
2021/04/30 08:49:27;;;;;;;11.50;9.70;;;14.60;55.50;;;;;;5063546;28;20033;-64
2021/04/30 08:51:53;;;;;;;10.30;9.25;;;14.60;55.00;;;;;;5064218;28;20138;-64
2021/04/30 08:54:19;;;;;;;9.20;8.20;;;14.70;55.40;;;;;;5063654;28;20409;-63
2021/04/30 08:56:51;;;;;;;12.95;10.18;;;14.70;55.50;;;;;;5063192;28;20046;-64
2021/04/30 08:59:20;;;;;;;11.95;10.25;;;14.80;54.90;;;;;;5065743;28;20109;-63
2021/04/30 09:01:45;;;;;;;10.73;9.23;;;14.80;55.30;;;;;;5063677;28;20040;-64
2021/04/30 09:04:13;;;;;;;10.50;9.23;;;14.90;55.30;;;;;;5065066;28;20490;-63
2021/04/30 09:06:44;;;;;;;10.70;8.95;;;14.90;55.40;;;;;;5065086;28;20037;-63
2021/04/30 09:09:17;;;;;;;11.57;9.95;;;15.00;55.40;;;;;;5064896;28;20120;-63
2021/04/30 09:11:52;;;;;;;12.68;10.57;;;15.00;55.00;;;;;;5062476;28;20040;-64
2021/04/30 09:14:33;;;;;;;13.65;11.02;;;15.00;54.70;;;;;;5064416;28;20064;-64
2021/04/30 09:17:17;;;;;;;11.68;10.32;;;15.10;54.00;;;;;;5062716;28;20029;-63
2021/04/30 09:19:50;;;;;;;10.83;9.00;;;15.10;55.20;;;;;;5064740;28;20024;-63
2021/04/30 09:22:26;;;;;;;13.52;10.35;;;15.10;55.50;;;;;;5063912;28;20036;-64
2021/04/30 09:25:01;;;;;;;12.35;10.73;;;15.20;55.00;;;;;;5065421;28;20032;-63
2021/04/30 09:27:36;;;;;;;;;;;15.20;54.70;;;;;;5067539;28;20115;-63
2021/04/30 09:30:17;;;;;;;11.00;9.90;;;15.30;54.00;;;;;;5065400;28;19920;-64
2021/04/30 09:33:14;;;;;;;13.45;10.35;;;15.40;54.60;;;;;;5064940;28;20035;-64
2021/04/30 09:35:56;;;;;;;11.65;10.45;;;15.40;54.50;;;;;;5066521;28;20036;-63
2021/04/30 09:38:28;;;;;;;11.85;9.65;;;15.40;54.00;;;;;;5065533;28;20107;-63
2021/04/30 09:41:13;;;;;;;13.30;9.77;;;15.50;54.80;;;;;;5065077;28;20044;-64
2021/04/30 09:43:49;;;;;;;12.02;9.20;;;15.50;54.30;;;;;;5064005;28;20116;-64
2021/04/30 09:46:36;;;;;;;12.02;9.18;;;15.60;54.70;;;;;;5063783;28;20052;-63
2021/04/30 09:49:05;;;;;;;9.48;8.05;;;15.70;54.80;;;;;;5065847;28;20035;-64
2021/04/30 09:51:50;;;;;;;13.80;10.95;;;15.80;54.80;;;;;;5066003;28;20039;-63
2021/04/30 09:54:28;;;;;;;9.90;8.88;;;15.90;53.70;;;;;;5065898;28;20037;-64
2021/04/30 09:57:12;;;;;;;10.57;9.48;;;16.00;54.30;;;;;;5065159;28;20081;-64
2021/04/30 09:59:42;;;;;;;9.95;8.63;;;16.10;53.20;;;;;;5065199;28;20035;-64
2021/04/30 10:02:17;;;;;;;9.77;8.75;;;16.20;54.00;;;;;;5064921;28;20054;-64
2021/04/30 10:04:45;;;;;;;8.15;7.35;;;16.30;53.80;;;;;;5065638;28;20044;-64
2021/04/30 10:07:42;;;;;;;8.48;7.57;;;16.40;54.00;;;;;;5064916;28;20436;-63
2021/04/30 10:10:22;;;;;;;8.57;7.68;;;16.50;53.80;;;;;;5064112;28;20489;-64
2021/04/30 10:12:58;;;;;;;8.35;7.53;;;16.70;53.10;;;;;;5062132;28;20086;-64
2021/04/30 10:15:27;;;;;;;9.05;8.15;;;16.80;53.20;;;;;;5066662;28;20498;-63
2021/04/30 10:17:57;;;;;;;8.13;7.40;;;16.90;53.30;;;;;;5066234;28;20070;-63
2021/04/30 10:20:23;;;;;;;9.05;7.90;;;17.00;53.20;;;;;;5065382;28;20087;-64
2021/04/30 10:22:52;;;;;;;8.57;7.68;;;17.20;53.00;;;;;;5065069;28;20442;-63
2021/04/30 10:25:21;;;;;;;9.55;8.00;;;17.30;52.70;;;;;;5065246;28;20025;-63
2021/04/30 10:27:52;;;;;;;10.57;7.80;;;17.40;52.00;;;;;;5066672;28;20552;-64
2021/04/30 10:30:33;;;;;;;9.25;8.30;;;17.50;52.00;;;;;;5065669;28;20037;-63
2021/04/30 10:33:23;;;;;;;8.88;7.75;;;17.50;51.70;;;;;;5081357;28;20500;-62
2021/04/30 10:36:07;;;;;;;8.77;7.88;;;17.60;51.70;;;;;;5065212;28;20526;-64
2021/04/30 10:38:40;;;;;;;10.60;7.97;;;17.70;51.80;;;;;;5064008;28;20037;-60
2021/04/30 10:41:14;;;;;;;8.80;7.93;;;17.70;51.30;;;;;;5062278;28;20036;-63
2021/04/30 10:43:40;;;;;;;8.52;7.60;;;17.70;51.40;;;;;;5064823;28;20709;-64
2021/04/30 10:46:20;;;;;;;9.45;7.68;;;17.80;51.80;;;;;;5063121;28;20029;-64
2021/04/30 10:49:07;;;;;;;10.13;8.38;;;17.80;51.40;;;;;;5064487;28;20036;-64
2021/04/30 10:51:38;;;;;;;9.50;8.50;;;17.90;50.80;;;;;;5065837;28;20033;-64
2021/04/30 10:54:23;;;;;;;8.90;8.00;;;17.90;51.10;;;;;;5061336;28;20041;-64
2021/04/30 10:57:15;;;;;;;8.55;7.35;;;18.00;50.60;;;;;;5062222;28;20262;-65
2021/04/30 10:59:51;;;;;;;8.55;7.75;;;18.00;51.10;;;;;;5065855;28;20393;-62
2021/04/30 11:02:32;;;;;;;8.60;7.38;;;18.10;50.40;;;;;;5061185;28;20045;-64
2021/04/30 11:05:13;;;;;;;11.45;9.82;;;18.10;50.60;;;;;;5063168;28;20036;-64
2021/04/30 11:07:52;;;;;;;11.85;10.35;;;18.20;50.00;;;;;;5064568;28;20036;-64
2021/04/30 11:10:22;;;;;;;11.70;9.88;;;18.20;50.00;;;;;;5063827;28;20041;-64
2021/04/30 11:13:19;;;;;;;12.07;10.20;;;18.10;50.30;;;;;;5062649;28;20036;-64
2021/04/30 11:15:52;;;;;;;11.52;9.90;;;18.10;50.70;;;;;;5064928;28;20389;-64
2021/04/30 11:18:21;;;;;;;11.30;9.70;;;18.10;51.00;;;;;;5064690;28;20115;-64
2021/04/30 11:21:08;;;;;;;12.88;11.45;;;18.20;51.20;;;;;;5064238;28;20136;-64
2021/04/30 11:23:42;;;;;;;13.25;10.40;;;18.30;50.70;;;;;;5064169;28;20025;-64
2021/04/30 11:26:13;;;;;;;14.15;11.68;;;18.30;50.50;;;;;;5063917;28;20596;-64
2021/04/30 11:28:44;;;;;;;13.82;11.52;;;18.30;50.10;;;;;;5063104;28;20082;-64
2021/04/30 11:31:26;;;;;;;14.00;11.43;;;18.30;49.60;;;;;;5064855;28;20599;-63
2021/04/30 11:34:12;;;;;;;11.02;9.93;;;18.20;49.90;;;;;;5063391;28;20348;-64
2021/04/30 11:36:47;;;;;;;14.57;11.43;;;18.20;49.60;;;;;;5063995;28;20032;-64
2021/04/30 11:39:28;;;;;;;14.10;11.85;;;18.10;49.90;;;;;;5064878;28;20127;-64
2021/04/30 11:42:01;;;;;;;12.52;10.50;;;18.00;49.50;;;;;;5063803;28;20032;-64
2021/04/30 11:44:32;;;;;;;12.60;11.30;;;18.00;50.60;;;;;;5059659;28;20094;-64
2021/04/30 11:47:02;;;;;;;12.77;11.32;;;18.00;50.10;;;;;;5066771;28;20524;-62
2021/04/30 11:49:31;;;;;;;12.93;10.00;;;18.00;50.50;;;;;;5060489;28;20039;-64
2021/04/30 11:51:59;;;;;;;11.95;10.75;;;18.00;50.70;;;;;;5067912;28;20128;-63
2021/04/30 11:54:30;;;;;;;11.52;10.27;;;18.00;51.10;;;;;;5067504;28;20028;-63
2021/04/30 11:57:13;;;;;;;13.68;10.95;;;18.00;50.90;;;;;;5066280;28;20032;-63
2021/04/30 11:59:47;;;;;;;11.93;10.73;;;18.00;50.70;;;;;;5067434;28;20033;-63
2021/04/30 12:02:16;;;;;;;12.25;11.05;;;18.00;51.00;;;;;;5062984;28;20044;-64
2021/04/30 12:04:51;;;;;;;11.93;10.73;;;18.10;50.60;;;;;;5082460;28;20037;-63
2021/04/30 12:07:21;;;;;;;14.13;11.70;;;18.10;50.20;;;;;;5066512;28;20029;-64
2021/04/30 12:09:47;;;;;;;12.25;10.80;;;18.10;50.10;;;;;;5064966;28;20108;-64
2021/04/30 12:12:16;;;;;;;15.57;12.00;;;18.10;51.00;;;;;;5062327;28;20123;-64
2021/04/30 12:14:51;;;;;;;12.80;10.57;;;18.10;49.70;;;;;;5066464;28;20539;-63
2021/04/30 12:17:45;;;;;;;12.93;10.82;;;18.10;50.30;;;;;;5066209;28;20041;-64
2021/04/30 12:20:19;;;;;;;13.02;11.70;;;18.10;49.80;;;;;;5065257;28;20036;-63
2021/04/30 12:22:45;;;;;;;12.68;11.38;;;18.20;50.00;;;;;;5064144;28;20509;-65
2021/04/30 12:25:25;;;;;;;12.73;10.80;;;18.20;50.10;;;;;;5064875;28;20032;-64
2021/04/30 12:27:58;;;;;;;10.82;9.70;;;18.20;50.20;;;;;;5063872;28;20039;-64
2021/04/30 12:30:32;;;;;;;12.18;10.18;;;18.30;50.60;;;;;;5063106;28;20033;-63
2021/04/30 12:33:01;;;;;;;13.63;11.65;;;18.40;50.50;;;;;;5067712;28;20135;-62
2021/04/30 12:35:30;;;;;;;14.05;12.18;;;18.50;49.70;;;;;;5066994;28;20028;-63
2021/04/30 12:37:56;;;;;;;12.73;11.38;;;18.60;49.40;;;;;;5067513;28;20033;-63
2021/04/30 12:40:33;;;;;;;12.10;10.75;;;18.60;49.50;;;;;;5065484;28;20063;-62
2021/04/30 12:43:01;;;;;;;15.15;12.02;;;18.60;49.50;;;;;;5065626;28;20473;-63
2021/04/30 12:45:32;;;;;;;12.35;11.05;;;18.60;48.70;;;;;;5067354;28;20218;-63
2021/04/30 12:48:02;;;;;;;11.57;10.38;;;18.60;48.70;;;;;;5066965;28;20029;-64
2021/04/30 12:50:28;;;;;;;14.57;12.57;;;18.60;48.90;;;;;;5059255;28;20028;-63
2021/04/30 12:52:58;;;;;;;13.52;12.05;;;18.60;48.50;;;;;;5066308;28;20051;-64
2021/04/30 12:55:32;;;;;;;12.95;11.60;;;18.50;48.00;;;;;;5066687;28;20036;-63
2021/04/30 12:58:16;;;;;;;11.30;10.13;;;18.50;48.20;;;;;;5058540;28;20501;-63